CheckWX is a tool to help pilots better visualize weather data.  It is not intended as a substitute for an official pre-flight weather briefing.

22:07:07 UTC

ETSN METAR
Neuburg Airport
Germany
Current

47 mins ago

ETSN 202120Z 23002KT 9999 SCT100 BKN240 21/15 Q1017 BLU+
Observed
Jul-20 @ 21:20 UTC
Wind
  • 230° at 2 KTS
Visibility
10,000+ meters
Flight Rules
VFR
Cloud Levels
  • Scattered at 10,000' AGL
  • Broken at 24,000' AGL
Temperature
21°C / 70°F
Dewpoint
15°C / 59°F
Humidity
69%
Altimeter
30.03" Hg
Pressure
1016.92 hPa
Previous

2 hours ago

ETSN 202020Z VRB01KT 9999 FEW100 BKN250 BKN300 22/15 Q1016 BLU+
Observed
Jul-20 @ 20:20 UTC
Wind
  • Variable at 1 KTS
Visibility
10,000+ meters
Flight Rules
VFR
Cloud Levels
  • Few at 10,000' AGL
  • Broken at 25,000' AGL
  • Broken at 30,000' AGL
Temperature
22°C / 72°F
Dewpoint
15°C / 59°F
Humidity
65%
Altimeter
30" Hg
Pressure
1015.92 hPa
Previous

3 hours ago

ETSN 201920Z 20003KT 9999 FEW060 BKN260 BKN300 22/16 Q1016 BLU+
Observed
Jul-20 @ 19:20 UTC
Wind
  • 200° at 3 KTS
Visibility
10,000+ meters
Flight Rules
VFR
Cloud Levels
  • Few at 6,000' AGL
  • Broken at 26,000' AGL
  • Broken at 30,000' AGL
Temperature
22°C / 72°F
Dewpoint
16°C / 61°F
Humidity
69%
Altimeter
30" Hg
Pressure
1015.92 hPa